»·PEaware :: N1737B KPGD-KEYW

N1737B :: KPGD-KEYW

FLIGHT INFORMATION

Flight Status: Arrived
Operator: Privately registered:
United States
More flights under this callsign
Pilot: Robert G. (16272)
Aircraft: ROBIN DR-400
(DR40)
More flights by this aircraft type
Origin: KPGD Charlotte Co
United States
Destination: KEYW Key West Intl
United States
More flights between these airports :: More routes between these airports
Route: CHETS ATNAW
File this flight plan on PilotEdge
Remarks:
Altitude:
(Current/Filed)
8,500ft
Speed:
(Current/Filed)
130kts
Departed: 19-Jun-18 08:12 AM
Arrived: 19-Jun-18 09:47 AM
Distance/Time
Traveled:
142nm/1:35
Distance/Time
To Go:
Arrived

Flight Plot

Page will automatically refresh every two minutes.

Flight plan parsing failed; only flown route is shown


Map Options




Map Legend


Flown Route
Filed Route
Departure Airport
Arrival Airport
Navaid (VOR, NDB)
Fix

Horizontal Profiles

Position Reports

Time Latitude Longitude Heading Altitude Ground
Speed
19-Jun-18 08:09 26.923223 -81.999900 56 24ft 0kts
19-Jun-18 08:10 26.923223 -81.999900 56 24ft 0kts
19-Jun-18 08:11 26.923018 -81.998730 148 24ft 15kts
19-Jun-18 08:12 26.905762 -81.988266 152 601ft 83kts
19-Jun-18 08:13 26.882112 -81.986885 181 1282ft 99kts
19-Jun-18 08:14 26.854548 -81.987210 179 2078ft 100kts
19-Jun-18 08:15 26.826818 -81.987039 178 2866ft 102kts
19-Jun-18 08:16 26.799268 -81.986814 178 3641ft 102kts
19-Jun-18 08:17 26.781326 -81.986665 178 4146ft 102kts
19-Jun-18 08:18 26.763824 -81.986517 178 4727ft 97kts
19-Jun-18 08:19 26.745231 -81.986358 178 5433ft 89kts
19-Jun-18 08:20 26.723693 -81.986182 178 6226ft 89kts
19-Jun-18 08:21 26.698557 -81.985967 178 7015ft 96kts
19-Jun-18 08:22 26.671440 -81.985737 177 7808ft 101kts
19-Jun-18 08:23 26.643402 -81.985497 177 8473ft 115kts
19-Jun-18 08:24 26.608415 -81.985221 178 8478ft 142kts
19-Jun-18 08:25 26.569829 -81.984909 178 8473ft 145kts
19-Jun-18 08:26 26.531693 -81.984590 178 8473ft 138kts
19-Jun-18 08:27 26.495460 -81.984281 178 8473ft 144kts
19-Jun-18 08:28 26.462445 -81.984007 178 8472ft 145kts
19-Jun-18 08:29 26.431148 -81.983737 178 8508ft 145kts
19-Jun-18 08:30 26.409781 -81.983207 177 7483ft 201kts
19-Jun-18 08:31 26.378826 -81.981426 172 8502ft 127kts
19-Jun-18 08:32 26.344921 -81.975803 167 8508ft 143kts
19-Jun-18 08:33 26.309777 -81.976167 191 8504ft 145kts
19-Jun-18 08:34 26.273506 -81.980757 181 8502ft 146kts
19-Jun-18 08:35 26.234586 -81.981689 178 8500ft 146kts
19-Jun-18 08:36 26.195469 -81.981659 178 8500ft 146kts
19-Jun-18 08:37 26.158501 -81.981398 178 8500ft 145kts
19-Jun-18 08:38 26.123157 -81.981114 178 8500ft 146kts
19-Jun-18 08:39 26.086334 -81.980808 178 8251ft 156kts
19-Jun-18 08:40 26.049963 -81.980515 178 7846ft 159kts
19-Jun-18 08:41 26.015572 -81.980234 178 7461ft 159kts
19-Jun-18 08:42 25.987118 -81.979998 178 7156ft 158kts
19-Jun-18 08:43 25.961252 -81.979645 177 6877ft 157kts
19-Jun-18 08:44 25.938335 -81.977205 169 6640ft 156kts
19-Jun-18 08:45 25.915583 -81.973210 169 6404ft 155kts
19-Jun-18 08:46 25.893363 -81.969526 170 6175ft 154kts
19-Jun-18 08:47 25.873088 -81.966246 170 5958ft 154kts
19-Jun-18 08:48 25.849796 -81.962517 169 5727ft 153kts
19-Jun-18 08:49 25.823083 -81.958269 170 5453ft 153kts
19-Jun-18 08:50 25.789673 -81.952969 169 5145ft 151kts
19-Jun-18 08:51 25.748320 -81.946412 169 4747ft 150kts
19-Jun-18 08:52 25.707881 -81.940008 169 4515ft 143kts
19-Jun-18 08:53 25.669603 -81.933944 169 4517ft 139kts
19-Jun-18 08:54 25.640465 -81.929334 169 4517ft 138kts
19-Jun-18 08:55 25.613446 -81.925062 169 4517ft 138kts
19-Jun-18 08:56 25.586899 -81.920868 169 4518ft 138kts
19-Jun-18 08:57 25.562457 -81.917008 169 4518ft 138kts
19-Jun-18 08:58 25.540039 -81.913470 169 4517ft 138kts
19-Jun-18 08:59 25.516995 -81.909834 169 4518ft 138kts
19-Jun-18 09:00 25.495067 -81.906375 169 4517ft 138kts
19-Jun-18 09:01 25.474541 -81.901038 138 4517ft 135kts
19-Jun-18 09:02 25.459364 -81.889185 142 4518ft 136kts
19-Jun-18 09:03 25.442146 -81.875645 142 4518ft 136kts
19-Jun-18 09:04 25.417649 -81.856026 141 4516ft 136kts
19-Jun-18 09:05 25.389255 -81.833106 141 4514ft 132kts
19-Jun-18 09:06 25.361387 -81.810561 141 4510ft 137kts
19-Jun-18 09:07 25.330876 -81.785887 141 4506ft 139kts
19-Jun-18 09:08 25.300089 -81.760997 141 4502ft 140kts
19-Jun-18 09:09 25.269031 -81.735903 141 4500ft 141kts
19-Jun-18 09:10 25.237879 -81.710752 141 4500ft 141kts
19-Jun-18 09:11 25.206660 -81.685562 141 4500ft 141kts
19-Jun-18 09:12 25.175834 -81.660704 141 4500ft 141kts
19-Jun-18 09:13 25.145780 -81.636446 141 4500ft 142kts
19-Jun-18 09:14 25.124533 -81.619354 141 4500ft 142kts
19-Jun-18 09:15 25.106850 -81.605128 141 4500ft 143kts
19-Jun-18 09:16 25.088668 -81.590498 141 4426ft 148kts
19-Jun-18 09:17 25.070049 -81.575528 141 4180ft 152kts
19-Jun-18 09:18 25.049700 -81.559173 141 3969ft 151kts
19-Jun-18 09:19 25.029712 -81.543108 141 3745ft 151kts
19-Jun-18 09:20 25.005603 -81.523739 141 3519ft 148kts
19-Jun-18 09:21 24.972617 -81.497276 141 3193ft 147kts
19-Jun-18 09:22 24.940170 -81.471254 141 2999ft 143kts
19-Jun-18 09:23 24.908858 -81.446143 141 3000ft 139kts
19-Jun-18 09:24 24.878189 -81.421563 140 2998ft 138kts
19-Jun-18 09:25 24.847442 -81.396936 140 2998ft 137kts
19-Jun-18 09:26 24.816793 -81.372402 140 2998ft 136kts
19-Jun-18 09:27 24.786588 -81.348239 141 2999ft 136kts
19-Jun-18 09:28 24.756923 -81.324521 141 3000ft 136kts
19-Jun-18 09:29 24.726320 -81.300071 141 2999ft 136kts
19-Jun-18 09:30 24.695860 -81.275737 141 2999ft 136kts
19-Jun-18 09:31 24.665281 -81.251344 141 2999ft 136kts
19-Jun-18 09:32 24.638959 -81.254542 251 2988ft 141kts
19-Jun-18 09:33 24.628983 -81.303279 254 3000ft 141kts
19-Jun-18 09:34 24.619351 -81.337417 253 3000ft 141kts
19-Jun-18 09:35 24.605521 -81.384803 254 3000ft 140kts
19-Jun-18 09:36 24.596059 -81.418740 254 2999ft 139kts
19-Jun-18 09:37 24.588305 -81.457718 268 2999ft 137kts
19-Jun-18 09:38 24.585850 -81.495311 268 2754ft 144kts
19-Jun-18 09:39 24.582988 -81.538528 268 2459ft 141kts
19-Jun-18 09:40 24.580248 -81.579642 268 2499ft 134kts
19-Jun-18 09:41 24.577546 -81.620110 268 2499ft 134kts
19-Jun-18 09:42 24.574778 -81.661532 267 2256ft 143kts
19-Jun-18 09:43 24.572122 -81.700938 268 1722ft 120kts
19-Jun-18 09:44 24.569867 -81.732769 267 1492ft 93kts
19-Jun-18 09:45 24.567215 -81.761807 267 1036ft 95kts
19-Jun-18 09:46 24.557319 -81.780681 120 651ft 89kts
19-Jun-18 09:47 24.556189 -81.758921 94 6ft 38kts
19-Jun-18 09:48 24.555431 -81.755951 187 6ft 0kts
19-Jun-18 09:49 24.555343 -81.756175 274 6ft 4kts
19-Jun-18 09:50 24.554829 -81.756309 3 6ft 0kts
19-Jun-18 09:51 24.554829 -81.756309 3 6ft 0kts

Navigation Log

Ident Type
Flight plan parsing failed, navigation log unavailable